Terminal Aerodrome Forecast
Issued by NWS Twin Cities, MN

Home | Current Version | Previous Version | Graphics & Text | Print | Product List | Glossary On
Versions: 1 2 3 4 5 6 7 8 9 10 11 12 13 14 15 16 17 18 19 20 21 22 23 24 25 26 27
432
FTUS43 KMPX 230246 AAA
TAFMSP
TAF AMD
KMSP 230246Z 2303/2406 34007KT P6SM BKN090
     FM231400 36010KT P6SM SCT020 OVC035 PROB30 2316/2322 -SHRA
      BKN025=

USA.gov is the U.S. government's official web portal to all federal, state and local government web resources and services.